sensor_id;sensor_type;location;lat;lon;timestamp;P1;durP1;ratioP1;P2;durP2;ratioP2
42192;SDS011;52467;40.114;18.306;2023-04-01T00:02:08;32.85;;;4.80;;
42192;SDS011;52467;40.114;18.306;2023-04-01T00:04:36;35.47;;;5.72;;
42192;SDS011;52467;40.114;18.306;2023-04-01T00:07:03;41.70;;;6.07;;
42192;SDS011;52467;40.114;18.306;2023-04-01T00:09:30;32.80;;;4.72;;
42192;SDS011;52467;40.114;18.306;2023-04-01T00:11:59;34.97;;;5.30;;
42192;SDS011;52467;40.114;18.306;2023-04-01T00:14:26;37.75;;;5.57;;
42192;SDS011;52467;40.114;18.306;2023-04-01T00:16:53;35.03;;;4.97;;
42192;SDS011;52467;40.114;18.306;2023-04-01T00:19:25;40.50;;;5.30;;
42192;SDS011;52467;40.114;18.306;2023-04-01T00:21:53;32.92;;;5.45;;
42192;SDS011;52467;40.114;18.306;2023-04-01T00:24:20;37.10;;;4.82;;
42192;SDS011;52467;40.114;18.306;2023-04-01T00:26:47;37.78;;;5.43;;
42192;SDS011;52467;40.114;18.306;2023-04-01T00:29:15;26.30;;;4.63;;
42192;SDS011;52467;40.114;18.306;2023-04-01T00:31:42;38.17;;;5.32;;
42192;SDS011;52467;40.114;18.306;2023-04-01T00:34:10;34.75;;;5.15;;
42192;SDS011;52467;40.114;18.306;2023-04-01T00:36:37;36.08;;;5.10;;
42192;SDS011;52467;40.114;18.306;2023-04-01T00:39:05;37.78;;;4.72;;
42192;SDS011;52467;40.114;18.306;2023-04-01T00:41:32;33.25;;;5.35;;
42192;SDS011;52467;40.114;18.306;2023-04-01T00:46:47;25.15;;;4.60;;
42192;SDS011;52467;40.114;18.306;2023-04-01T00:49:15;32.00;;;4.90;;
42192;SDS011;52467;40.114;18.306;2023-04-01T00:51:45;34.88;;;5.03;;
42192;SDS011;52467;40.114;18.306;2023-04-01T00:54:15;37.47;;;6.63;;
42192;SDS011;52467;40.114;18.306;2023-04-01T00:56:45;37.78;;;6.20;;
42192;SDS011;52467;40.114;18.306;2023-04-01T00:59:34;35.28;;;5.25;;
42192;SDS011;52467;40.114;18.306;2023-04-01T01:02:07;36.08;;;5.40;;
42192;SDS011;52467;40.114;18.306;2023-04-01T01:04:37;37.93;;;5.97;;
42192;SDS011;52467;40.114;18.306;2023-04-01T01:09:38;47.60;;;5.38;;
42192;SDS011;52467;40.114;18.306;2023-04-01T01:12:27;33.27;;;5.23;;
42192;SDS011;52467;40.114;18.306;2023-04-01T01:15:08;28.05;;;4.32;;
42192;SDS011;52467;40.114;18.306;2023-04-01T01:34:22;34.60;;;6.25;;
42192;SDS011;52467;40.114;18.306;2023-04-01T01:37:01;33.78;;;4.47;;
42192;SDS011;52467;40.114;18.306;2023-04-01T01:39:33;35.20;;;4.97;;
42192;SDS011;52467;40.114;18.306;2023-04-01T01:42:03;41.00;;;5.00;;
42192;SDS011;52467;40.114;18.306;2023-04-01T01:44:33;35.92;;;4.72;;
42192;SDS011;52467;40.114;18.306;2023-04-01T01:47:01;34.47;;;4.82;;
42192;SDS011;52467;40.114;18.306;2023-04-01T01:49:29;43.85;;;6.05;;
42192;SDS011;52467;40.114;18.306;2023-04-01T01:51:58;34.65;;;5.10;;
42192;SDS011;52467;40.114;18.306;2023-04-01T01:54:26;36.22;;;4.97;;
42192;SDS011;52467;40.114;18.306;2023-04-01T01:57:01;35.17;;;4.75;;
42192;SDS011;52467;40.114;18.306;2023-04-01T01:59:35;34.47;;;4.68;;
42192;SDS011;52467;40.114;18.306;2023-04-01T02:02:06;32.03;;;4.15;;
42192;SDS011;52467;40.114;18.306;2023-04-01T02:04:36;27.00;;;3.88;;
42192;SDS011;52467;40.114;18.306;2023-04-01T02:07:07;29.20;;;4.97;;
42192;SDS011;52467;40.114;18.306;2023-04-01T02:09:39;33.10;;;4.60;;
42192;SDS011;52467;40.114;18.306;2023-04-01T02:12:08;38.03;;;5.75;;
42192;SDS011;52467;40.114;18.306;2023-04-01T02:14:43;35.13;;;4.90;;
42192;SDS011;52467;40.114;18.306;2023-04-01T02:17:19;36.42;;;5.22;;
42192;SDS011;52467;40.114;18.306;2023-04-01T02:19:57;29.48;;;4.72;;
42192;SDS011;52467;40.114;18.306;2023-04-01T02:22:34;29.93;;;5.20;;
42192;SDS011;52467;40.114;18.306;2023-04-01T02:25:05;39.80;;;6.17;;
42192;SDS011;52467;40.114;18.306;2023-04-01T02:27:37;33.00;;;5.47;;
42192;SDS011;52467;40.114;18.306;2023-04-01T02:30:07;38.40;;;5.13;;
42192;SDS011;52467;40.114;18.306;2023-04-01T02:32:35;40.95;;;5.28;;
42192;SDS011;52467;40.114;18.306;2023-04-01T02:35:06;43.42;;;5.75;;
42192;SDS011;52467;40.114;18.306;2023-04-01T02:37:38;39.38;;;5.03;;
42192;SDS011;52467;40.114;18.306;2023-04-01T02:40:11;38.45;;;5.20;;
42192;SDS011;52467;40.114;18.306;2023-04-01T02:42:39;47.50;;;5.88;;
42192;SDS011;52467;40.114;18.306;2023-04-01T02:45:07;33.17;;;5.13;;
42192;SDS011;52467;40.114;18.306;2023-04-01T02:47:35;42.97;;;5.30;;
42192;SDS011;52467;40.114;18.306;2023-04-01T02:50:03;37.95;;;5.10;;
42192;SDS011;52467;40.114;18.306;2023-04-01T02:52:32;33.47;;;4.97;;
42192;SDS011;52467;40.114;18.306;2023-04-01T02:55:01;40.35;;;6.00;;
42192;SDS011;52467;40.114;18.306;2023-04-01T02:57:29;39.17;;;5.60;;
42192;SDS011;52467;40.114;18.306;2023-04-01T02:59:57;42.80;;;4.78;;
42192;SDS011;52467;40.114;18.306;2023-04-01T03:02:24;38.60;;;5.20;;
42192;SDS011;52467;40.114;18.306;2023-04-01T03:04:52;38.03;;;5.72;;
42192;SDS011;52467;40.114;18.306;2023-04-01T03:07:19;42.35;;;5.55;;
42192;SDS011;52467;40.114;18.306;2023-04-01T03:09:48;53.22;;;5.82;;
42192;SDS011;52467;40.114;18.306;2023-04-01T03:12:17;32.50;;;5.05;;
42192;SDS011;52467;40.114;18.306;2023-04-01T03:14:49;38.67;;;4.32;;
42192;SDS011;52467;40.114;18.306;2023-04-01T03:17:16;37.70;;;4.95;;
42192;SDS011;52467;40.114;18.306;2023-04-01T03:19:44;35.33;;;5.13;;
42192;SDS011;52467;40.114;18.306;2023-04-01T03:22:12;37.25;;;5.15;;
42192;SDS011;52467;40.114;18.306;2023-04-01T03:24:40;42.25;;;4.90;;
42192;SDS011;52467;40.114;18.306;2023-04-01T03:27:07;36.80;;;4.68;;
42192;SDS011;52467;40.114;18.306;2023-04-01T03:29:34;43.72;;;5.30;;
42192;SDS011;52467;40.114;18.306;2023-04-01T03:32:01;44.35;;;5.95;;
42192;SDS011;52467;40.114;18.306;2023-04-01T03:34:29;31.27;;;4.90;;
42192;SDS011;52467;40.114;18.306;2023-04-01T03:36:57;40.28;;;4.90;;
42192;SDS011;52467;40.114;18.306;2023-04-01T03:39:25;17.58;;;3.63;;
42192;SDS011;52467;40.114;18.306;2023-04-01T03:41:54;23.25;;;4.72;;
42192;SDS011;52467;40.114;18.306;2023-04-01T03:44:21;21.38;;;4.13;;
42192;SDS011;52467;40.114;18.306;2023-04-01T03:46:51;23.00;;;4.90;;
42192;SDS011;52467;40.114;18.306;2023-04-01T03:49:19;16.83;;;4.50;;
42192;SDS011;52467;40.114;18.306;2023-04-01T03:51:46;17.92;;;3.28;;
42192;SDS011;52467;40.114;18.306;2023-04-01T03:54:14;18.85;;;3.15;;
42192;SDS011;52467;40.114;18.306;2023-04-01T03:56:42;24.17;;;3.63;;
42192;SDS011;52467;40.114;18.306;2023-04-01T03:59:10;15.10;;;4.20;;
42192;SDS011;52467;40.114;18.306;2023-04-01T04:01:37;13.95;;;3.05;;
42192;SDS011;52467;40.114;18.306;2023-04-01T04:04:05;17.73;;;3.90;;
42192;SDS011;52467;40.114;18.306;2023-04-01T04:06:32;20.77;;;3.40;;
42192;SDS011;52467;40.114;18.306;2023-04-01T04:09:00;22.67;;;4.45;;
42192;SDS011;52467;40.114;18.306;2023-04-01T04:11:30;15.52;;;3.17;;
42192;SDS011;52467;40.114;18.306;2023-04-01T04:14:01;20.60;;;4.60;;
42192;SDS011;52467;40.114;18.306;2023-04-01T04:16:28;20.05;;;3.28;;
42192;SDS011;52467;40.114;18.306;2023-04-01T04:18:59;16.23;;;3.47;;
42192;SDS011;52467;40.114;18.306;2023-04-01T04:21:26;20.83;;;3.55;;
42192;SDS011;52467;40.114;18.306;2023-04-01T04:23:54;13.57;;;2.95;;
42192;SDS011;52467;40.114;18.306;2023-04-01T04:26:22;12.73;;;3.70;;
42192;SDS011;52467;40.114;18.306;2023-04-01T04:28:55;11.55;;;3.00;;
42192;SDS011;52467;40.114;18.306;2023-04-01T04:31:24;11.18;;;3.00;;
42192;SDS011;52467;40.114;18.306;2023-04-01T04:33:58;11.00;;;3.30;;
42192;SDS011;52467;40.114;18.306;2023-04-01T04:36:28;11.65;;;2.90;;
42192;SDS011;52467;40.114;18.306;2023-04-01T04:38:56;13.73;;;4.32;;
42192;SDS011;52467;40.114;18.306;2023-04-01T04:41:24;11.13;;;3.97;;
42192;SDS011;52467;40.114;18.306;2023-04-01T04:43:54;14.05;;;3.78;;
42192;SDS011;52467;40.114;18.306;2023-04-01T04:46:23;9.30;;;3.08;;
42192;SDS011;52467;40.114;18.306;2023-04-01T04:48:58;18.40;;;2.70;;
42192;SDS011;52467;40.114;18.306;2023-04-01T04:51:25;11.83;;;3.23;;
42192;SDS011;52467;40.114;18.306;2023-04-01T04:53:53;10.52;;;2.97;;
42192;SDS011;52467;40.114;18.306;2023-04-01T04:56:30;15.32;;;2.63;;
42192;SDS011;52467;40.114;18.306;2023-04-01T04:59:04;14.30;;;2.88;;
42192;SDS011;52467;40.114;18.306;2023-04-01T05:01:49;11.63;;;3.28;;
42192;SDS011;52467;40.114;18.306;2023-04-01T05:04:17;13.82;;;3.90;;
42192;SDS011;52467;40.114;18.306;2023-04-01T05:06:44;11.32;;;3.13;;
42192;SDS011;52467;40.114;18.306;2023-04-01T05:09:12;11.07;;;2.40;;
42192;SDS011;52467;40.114;18.306;2023-04-01T05:11:41;7.50;;;3.10;;
42192;SDS011;52467;40.114;18.306;2023-04-01T05:14:15;14.52;;;2.88;;
42192;SDS011;52467;40.114;18.306;2023-04-01T05:16:51;15.27;;;3.63;;
42192;SDS011;52467;40.114;18.306;2023-04-01T05:19:19;13.82;;;2.97;;
42192;SDS011;52467;40.114;18.306;2023-04-01T05:21:46;12.30;;;3.20;;
42192;SDS011;52467;40.114;18.306;2023-04-01T05:24:15;15.98;;;3.67;;
42192;SDS011;52467;40.114;18.306;2023-04-01T05:26:44;15.88;;;3.17;;
42192;SDS011;52467;40.114;18.306;2023-04-01T05:29:12;19.98;;;4.68;;
42192;SDS011;52467;40.114;18.306;2023-04-01T05:31:40;14.52;;;3.22;;
42192;SDS011;52467;40.114;18.306;2023-04-01T05:34:08;15.07;;;3.25;;
42192;SDS011;52467;40.114;18.306;2023-04-01T05:36:35;22.77;;;3.70;;
42192;SDS011;52467;40.114;18.306;2023-04-01T05:39:03;16.40;;;3.72;;
42192;SDS011;52467;40.114;18.306;2023-04-01T05:41:30;14.30;;;3.75;;
42192;SDS011;52467;40.114;18.306;2023-04-01T05:43:57;13.35;;;3.97;;
42192;SDS011;52467;40.114;18.306;2023-04-01T05:46:40;15.05;;;3.70;;
42192;SDS011;52467;40.114;18.306;2023-04-01T05:49:15;15.23;;;3.47;;
42192;SDS011;52467;40.114;18.306;2023-04-01T05:51:42;13.52;;;3.28;;
42192;SDS011;52467;40.114;18.306;2023-04-01T05:54:10;10.52;;;3.65;;
42192;SDS011;52467;40.114;18.306;2023-04-01T05:56:38;24.80;;;3.87;;
42192;SDS011;52467;40.114;18.306;2023-04-01T05:59:05;25.65;;;4.13;;
42192;SDS011;52467;40.114;18.306;2023-04-01T06:01:32;18.52;;;4.28;;
42192;SDS011;52467;40.114;18.306;2023-04-01T06:04:00;23.73;;;3.45;;
42192;SDS011;52467;40.114;18.306;2023-04-01T06:06:29;25.43;;;4.23;;
42192;SDS011;52467;40.114;18.306;2023-04-01T06:09:16;20.92;;;4.03;;
42192;SDS011;52467;40.114;18.306;2023-04-01T06:12:06;22.10;;;3.87;;
42192;SDS011;52467;40.114;18.306;2023-04-01T06:17:44;21.23;;;3.70;;
42192;SDS011;52467;40.114;18.306;2023-04-01T06:31:50;20.75;;;4.85;;
42192;SDS011;52467;40.114;18.306;2023-04-01T06:46:19;17.17;;;5.03;;
42192;SDS011;52467;40.114;18.306;2023-04-01T06:49:17;14.90;;;3.17;;
42192;SDS011;52467;40.114;18.306;2023-04-01T06:58:23;23.40;;;4.38;;
42192;SDS011;52467;40.114;18.306;2023-04-01T07:00:54;19.50;;;2.92;;
42192;SDS011;52467;40.114;18.306;2023-04-01T07:03:32;10.73;;;2.90;;
42192;SDS011;52467;40.114;18.306;2023-04-01T07:06:05;13.98;;;3.03;;
42192;SDS011;52467;40.114;18.306;2023-04-01T07:08:47;16.80;;;3.33;;
42192;SDS011;52467;40.114;18.306;2023-04-01T07:11:25;18.43;;;4.17;;
42192;SDS011;52467;40.114;18.306;2023-04-01T07:14:22;14.88;;;3.00;;
42192;SDS011;52467;40.114;18.306;2023-04-01T07:28:32;19.30;;;4.30;;
42192;SDS011;52467;40.114;18.306;2023-04-01T07:34:24;12.90;;;3.58;;
42192;SDS011;52467;40.114;18.306;2023-04-01T07:36:56;14.27;;;3.65;;
42192;SDS011;52467;40.114;18.306;2023-04-01T07:43:18;14.27;;;3.58;;
42192;SDS011;52467;40.114;18.306;2023-04-01T07:45:39;17.65;;;3.40;;
42192;SDS011;52467;40.114;18.306;2023-04-01T07:48:29;15.80;;;4.05;;
42192;SDS011;52467;40.114;18.306;2023-04-01T07:51:31;18.55;;;3.80;;
42192;SDS011;52467;40.114;18.306;2023-04-01T07:56:38;14.32;;;3.05;;
42192;SDS011;52467;40.114;18.306;2023-04-01T08:07:33;9.38;;;3.00;;
42192;SDS011;52467;40.114;18.306;2023-04-01T08:10:46;10.00;;;2.90;;
42192;SDS011;52467;40.114;18.306;2023-04-01T08:13:46;11.13;;;2.88;;
42192;SDS011;52467;40.114;18.306;2023-04-01T08:16:57;12.48;;;3.15;;
42192;SDS011;52467;40.114;18.306;2023-04-01T08:24:58;15.52;;;3.50;;
42192;SDS011;52467;40.114;18.306;2023-04-01T08:27:44;11.52;;;3.20;;
42192;SDS011;52467;40.114;18.306;2023-04-01T08:30:18;13.90;;;4.07;;
42192;SDS011;52467;40.114;18.306;2023-04-01T08:35:46;17.85;;;4.63;;
42192;SDS011;52467;40.114;18.306;2023-04-01T08:38:38;28.85;;;4.50;;
42192;SDS011;52467;40.114;18.306;2023-04-01T08:44:16;16.95;;;4.78;;
42192;SDS011;52467;40.114;18.306;2023-04-01T08:47:04;21.57;;;4.93;;
42192;SDS011;52467;40.114;18.306;2023-04-01T09:19:43;15.55;;;3.83;;
42192;SDS011;52467;40.114;18.306;2023-04-01T09:22:25;16.35;;;4.03;;
42192;SDS011;52467;40.114;18.306;2023-04-01T09:30:32;14.20;;;4.82;;
42192;SDS011;52467;40.114;18.306;2023-04-01T09:38:57;17.45;;;4.78;;
42192;SDS011;52467;40.114;18.306;2023-04-01T09:44:41;15.48;;;4.40;;
42192;SDS011;52467;40.114;18.306;2023-04-01T09:52:37;18.57;;;4.33;;
42192;SDS011;52467;40.114;18.306;2023-04-01T10:22:04;21.48;;;6.20;;
42192;SDS011;52467;40.114;18.306;2023-04-01T10:30:56;11.98;;;4.20;;
42192;SDS011;52467;40.114;18.306;2023-04-01T10:34:00;10.18;;;3.45;;
42192;SDS011;52467;40.114;18.306;2023-04-01T10:36:52;10.52;;;3.35;;
42192;SDS011;52467;40.114;18.306;2023-04-01T10:43:15;12.32;;;3.50;;
42192;SDS011;52467;40.114;18.306;2023-04-01T10:46:20;15.50;;;3.35;;
42192;SDS011;52467;40.114;18.306;2023-04-01T10:55:44;8.60;;;2.88;;
42192;SDS011;52467;40.114;18.306;2023-04-01T11:22:54;12.68;;;3.50;;
42192;SDS011;52467;40.114;18.306;2023-04-01T11:25:08;10.75;;;2.40;;
42192;SDS011;52467;40.114;18.306;2023-04-01T11:42:22;11.98;;;2.88;;
42192;SDS011;52467;40.114;18.306;2023-04-01T11:45:35;8.85;;;2.15;;
42192;SDS011;52467;40.114;18.306;2023-04-01T12:02:18;5.97;;;2.28;;
42192;SDS011;52467;40.114;18.306;2023-04-01T12:04:54;6.80;;;2.28;;
42192;SDS011;52467;40.114;18.306;2023-04-01T12:10:05;8.60;;;2.70;;
42192;SDS011;52467;40.114;18.306;2023-04-01T12:12:59;10.55;;;2.80;;
42192;SDS011;52467;40.114;18.306;2023-04-01T12:18:17;14.52;;;2.60;;
42192;SDS011;52467;40.114;18.306;2023-04-01T12:21:16;9.30;;;2.70;;
42192;SDS011;52467;40.114;18.306;2023-04-01T12:41:06;11.73;;;3.25;;
42192;SDS011;52467;40.114;18.306;2023-04-01T12:43:55;9.13;;;2.37;;
42192;SDS011;52467;40.114;18.306;2023-04-01T12:47:26;11.20;;;3.35;;
42192;SDS011;52467;40.114;18.306;2023-04-01T12:52:19;8.00;;;2.00;;
42192;SDS011;52467;40.114;18.306;2023-04-01T13:15:47;9.02;;;3.00;;
42192;SDS011;52467;40.114;18.306;2023-04-01T13:21:42;7.45;;;2.45;;
42192;SDS011;52467;40.114;18.306;2023-04-01T13:27:09;8.10;;;2.30;;
42192;SDS011;52467;40.114;18.306;2023-04-01T13:30:16;12.10;;;2.78;;
42192;SDS011;52467;40.114;18.306;2023-04-01T13:33:09;13.70;;;2.72;;
42192;SDS011;52467;40.114;18.306;2023-04-01T13:35:46;6.70;;;2.60;;
42192;SDS011;52467;40.114;18.306;2023-04-01T13:49:23;11.63;;;2.33;;
42192;SDS011;52467;40.114;18.306;2023-04-01T13:52:13;9.80;;;2.17;;
42192;SDS011;52467;40.114;18.306;2023-04-01T14:03:24;10.67;;;3.73;;
42192;SDS011;52467;40.114;18.306;2023-04-01T14:25:39;10.63;;;2.78;;
42192;SDS011;52467;40.114;18.306;2023-04-01T14:31:22;13.00;;;3.60;;
42192;SDS011;52467;40.114;18.306;2023-04-01T14:40:05;8.65;;;2.67;;
42192;SDS011;52467;40.114;18.306;2023-04-01T14:42:41;10.18;;;2.15;;
42192;SDS011;52467;40.114;18.306;2023-04-01T14:48:21;14.27;;;2.95;;
42192;SDS011;52467;40.114;18.306;2023-04-01T14:50:51;10.00;;;2.92;;
42192;SDS011;52467;40.114;18.306;2023-04-01T14:55:55;11.27;;;2.70;;
42192;SDS011;52467;40.114;18.306;2023-04-01T14:58:25;10.13;;;2.30;;
42192;SDS011;52467;40.114;18.306;2023-04-01T15:01:32;15.98;;;3.10;;
42192;SDS011;52467;40.114;18.306;2023-04-01T15:15:22;11.95;;;2.65;;
42192;SDS011;52467;40.114;18.306;2023-04-01T15:18:17;12.77;;;2.70;;
42192;SDS011;52467;40.114;18.306;2023-04-01T15:31:32;10.13;;;3.40;;
42192;SDS011;52467;40.114;18.306;2023-04-01T15:36:51;12.73;;;3.47;;
42192;SDS011;52467;40.114;18.306;2023-04-01T15:39:30;10.27;;;3.58;;
42192;SDS011;52467;40.114;18.306;2023-04-01T15:42:27;11.18;;;3.55;;
42192;SDS011;52467;40.114;18.306;2023-04-01T15:45:17;14.85;;;3.60;;
42192;SDS011;52467;40.114;18.306;2023-04-01T15:50:48;20.17;;;3.47;;
42192;SDS011;52467;40.114;18.306;2023-04-01T15:53:24;11.35;;;3.33;;
42192;SDS011;52467;40.114;18.306;2023-04-01T15:56:15;12.23;;;3.85;;
42192;SDS011;52467;40.114;18.306;2023-04-01T16:04:57;12.13;;;3.90;;
42192;SDS011;52467;40.114;18.306;2023-04-01T16:16:31;14.13;;;3.50;;
42192;SDS011;52467;40.114;18.306;2023-04-01T16:27:40;13.88;;;3.60;;
42192;SDS011;52467;40.114;18.306;2023-04-01T16:30:34;12.57;;;3.75;;
42192;SDS011;52467;40.114;18.306;2023-04-01T16:33:10;15.65;;;3.85;;
42192;SDS011;52467;40.114;18.306;2023-04-01T16:41:40;10.32;;;3.63;;
42192;SDS011;52467;40.114;18.306;2023-04-01T16:44:17;12.93;;;3.70;;
42192;SDS011;52467;40.114;18.306;2023-04-01T16:49:32;15.65;;;3.28;;
42192;SDS011;52467;40.114;18.306;2023-04-01T16:54:43;8.75;;;3.22;;
42192;SDS011;52467;40.114;18.306;2023-04-01T16:57:57;12.15;;;4.38;;
42192;SDS011;52467;40.114;18.306;2023-04-01T17:11:37;14.30;;;4.80;;
42192;SDS011;52467;40.114;18.306;2023-04-01T17:16:52;15.73;;;4.32;;
42192;SDS011;52467;40.114;18.306;2023-04-01T17:25:01;13.30;;;4.38;;
42192;SDS011;52467;40.114;18.306;2023-04-01T17:27:51;17.65;;;5.82;;
42192;SDS011;52467;40.114;18.306;2023-04-01T17:42:04;17.95;;;6.05;;
42192;SDS011;52467;40.114;18.306;2023-04-01T17:44:59;18.73;;;6.50;;
42192;SDS011;52467;40.114;18.306;2023-04-01T17:59:55;15.75;;;4.32;;
42192;SDS011;52467;40.114;18.306;2023-04-01T18:03:04;16.95;;;5.15;;
42192;SDS011;52467;40.114;18.306;2023-04-01T18:08:52;12.18;;;4.85;;
42192;SDS011;52467;40.114;18.306;2023-04-01T18:11:34;13.87;;;5.10;;
42192;SDS011;52467;40.114;18.306;2023-04-01T18:14:22;13.82;;;5.43;;
42192;SDS011;52467;40.114;18.306;2023-04-01T18:27:41;19.05;;;6.00;;
42192;SDS011;52467;40.114;18.306;2023-04-01T18:30:15;15.10;;;6.07;;
42192;SDS011;52467;40.114;18.306;2023-04-01T18:35:47;16.13;;;5.53;;
42192;SDS011;52467;40.114;18.306;2023-04-01T18:38:31;18.25;;;6.30;;
42192;SDS011;52467;40.114;18.306;2023-04-01T18:41:12;17.92;;;6.05;;
42192;SDS011;52467;40.114;18.306;2023-04-01T18:46:47;14.02;;;5.95;;
42192;SDS011;52467;40.114;18.306;2023-04-01T18:52:22;13.98;;;4.90;;
42192;SDS011;52467;40.114;18.306;2023-04-01T19:00:49;17.55;;;5.22;;
42192;SDS011;52467;40.114;18.306;2023-04-01T19:07:32;17.48;;;6.20;;
42192;SDS011;52467;40.114;18.306;2023-04-01T19:09:48;22.02;;;6.88;;
42192;SDS011;52467;40.114;18.306;2023-04-01T19:15:14;18.70;;;6.90;;
42192;SDS011;52467;40.114;18.306;2023-04-01T19:31:58;16.15;;;4.55;;
42192;SDS011;52467;40.114;18.306;2023-04-01T19:37:17;41.25;;;11.82;;
42192;SDS011;52467;40.114;18.306;2023-04-01T19:40:19;29.48;;;9.20;;
42192;SDS011;52467;40.114;18.306;2023-04-01T19:45:23;14.50;;;4.95;;
42192;SDS011;52467;40.114;18.306;2023-04-01T19:48:00;17.52;;;4.50;;
42192;SDS011;52467;40.114;18.306;2023-04-01T19:53:11;15.60;;;4.50;;
42192;SDS011;52467;40.114;18.306;2023-04-01T19:56:02;14.50;;;3.85;;
42192;SDS011;52467;40.114;18.306;2023-04-01T19:58:56;15.25;;;4.18;;
42192;SDS011;52467;40.114;18.306;2023-04-01T20:07:27;15.60;;;4.25;;
42192;SDS011;52467;40.114;18.306;2023-04-01T20:10:06;13.45;;;4.22;;
42192;SDS011;52467;40.114;18.306;2023-04-01T20:12:49;16.35;;;4.78;;
42192;SDS011;52467;40.114;18.306;2023-04-01T20:15:36;16.57;;;4.97;;
42192;SDS011;52467;40.114;18.306;2023-04-01T20:23:50;14.23;;;4.88;;
42192;SDS011;52467;40.114;18.306;2023-04-01T20:26:23;19.58;;;4.45;;
42192;SDS011;52467;40.114;18.306;2023-04-01T20:31:49;17.38;;;4.63;;
42192;SDS011;52467;40.114;18.306;2023-04-01T20:45:42;11.30;;;4.25;;
42192;SDS011;52467;40.114;18.306;2023-04-01T20:48:21;17.52;;;4.43;;
42192;SDS011;52467;40.114;18.306;2023-04-01T20:51:28;21.92;;;4.90;;
42192;SDS011;52467;40.114;18.306;2023-04-01T20:54:09;19.60;;;3.83;;
42192;SDS011;52467;40.114;18.306;2023-04-01T20:59:50;13.90;;;3.67;;
42192;SDS011;52467;40.114;18.306;2023-04-01T21:08:08;12.77;;;3.67;;
42192;SDS011;52467;40.114;18.306;2023-04-01T21:16:51;19.42;;;4.95;;
42192;SDS011;52467;40.114;18.306;2023-04-01T21:19:24;11.45;;;4.05;;
42192;SDS011;52467;40.114;18.306;2023-04-01T21:25:21;15.45;;;3.90;;
42192;SDS011;52467;40.114;18.306;2023-04-01T21:30:48;18.58;;;3.75;;
42192;SDS011;52467;40.114;18.306;2023-04-01T22:02:53;12.52;;;3.03;;
42192;SDS011;52467;40.114;18.306;2023-04-01T22:08:30;13.13;;;2.65;;
42192;SDS011;52467;40.114;18.306;2023-04-01T22:13:50;17.83;;;3.20;;
42192;SDS011;52467;40.114;18.306;2023-04-01T22:18:50;14.15;;;2.85;;
42192;SDS011;52467;40.114;18.306;2023-04-01T22:30:04;13.38;;;2.70;;
42192;SDS011;52467;40.114;18.306;2023-04-01T22:32:49;11.60;;;3.05;;
42192;SDS011;52467;40.114;18.306;2023-04-01T22:43:41;12.30;;;2.42;;
42192;SDS011;52467;40.114;18.306;2023-04-01T23:00:08;12.93;;;2.22;;
42192;SDS011;52467;40.114;18.306;2023-04-01T23:03:40;15.23;;;2.28;;
42192;SDS011;52467;40.114;18.306;2023-04-01T23:05:51;13.15;;;2.55;;
42192;SDS011;52467;40.114;18.306;2023-04-01T23:11:08;15.85;;;3.53;;
42192;SDS011;52467;40.114;18.306;2023-04-01T23:13:53;11.95;;;2.65;;
42192;SDS011;52467;40.114;18.306;2023-04-01T23:16:46;15.70;;;2.73;;
42192;SDS011;52467;40.114;18.306;2023-04-01T23:22:05;14.50;;;2.17;;
42192;SDS011;52467;40.114;18.306;2023-04-01T23:35:49;13.98;;;2.65;;
42192;SDS011;52467;40.114;18.306;2023-04-01T23:38:24;15.05;;;2.55;;
42192;SDS011;52467;40.114;18.306;2023-04-01T23:40:53;13.70;;;2.42;;
42192;SDS011;52467;40.114;18.306;2023-04-01T23:43:23;17.42;;;2.67;;
42192;SDS011;52467;40.114;18.306;2023-04-01T23:45:59;16.52;;;3.10;;
42192;SDS011;52467;40.114;18.306;2023-04-01T23:48:31;18.25;;;3.05;;
42192;SDS011;52467;40.114;18.306;2023-04-01T23:51:00;10.68;;;2.55;;
42192;SDS011;52467;40.114;18.306;2023-04-01T23:53:29;14.02;;;2.45;;
42192;SDS011;52467;40.114;18.306;2023-04-01T23:56:00;15.10;;;2.42;;
42192;SDS011;52467;40.114;18.306;2023-04-01T23:58:40;14.93;;;3.10;;
